sensor_id;sensor_type;location;lat;lon;timestamp;P1;durP1;ratioP1;P2;durP2;ratioP2
58123;SDS011;46725;48.068;20.832;2023-02-28T00:00:05;12.05;;;4.80;;
58123;SDS011;46725;48.068;20.832;2023-02-28T00:02:39;10.77;;;4.57;;
58123;SDS011;46725;48.068;20.832;2023-02-28T00:05:05;10.27;;;4.90;;
58123;SDS011;46725;48.068;20.832;2023-02-28T00:07:32;13.50;;;4.93;;
58123;SDS011;46725;48.068;20.832;2023-02-28T00:09:58;11.95;;;4.80;;
58123;SDS011;46725;48.068;20.832;2023-02-28T00:12:25;9.95;;;4.95;;
58123;SDS011;46725;48.068;20.832;2023-02-28T00:14:51;10.13;;;4.45;;
58123;SDS011;46725;48.068;20.832;2023-02-28T00:17:17;11.25;;;5.13;;
58123;SDS011;46725;48.068;20.832;2023-02-28T00:19:48;10.85;;;4.30;;
58123;SDS011;46725;48.068;20.832;2023-02-28T00:22:16;9.15;;;4.20;;
58123;SDS011;46725;48.068;20.832;2023-02-28T00:24:42;9.90;;;4.25;;
58123;SDS011;46725;48.068;20.832;2023-02-28T00:27:08;10.38;;;4.88;;
58123;SDS011;46725;48.068;20.832;2023-02-28T00:29:34;11.52;;;5.03;;
58123;SDS011;46725;48.068;20.832;2023-02-28T00:32:01;14.65;;;5.68;;
58123;SDS011;46725;48.068;20.832;2023-02-28T00:34:27;13.32;;;5.80;;
58123;SDS011;46725;48.068;20.832;2023-02-28T00:36:53;15.07;;;6.28;;
58123;SDS011;46725;48.068;20.832;2023-02-28T00:39:19;17.42;;;8.90;;
58123;SDS011;46725;48.068;20.832;2023-02-28T00:41:45;24.52;;;10.50;;
58123;SDS011;46725;48.068;20.832;2023-02-28T00:44:11;21.23;;;10.75;;
58123;SDS011;46725;48.068;20.832;2023-02-28T00:46:38;23.63;;;11.77;;
58123;SDS011;46725;48.068;20.832;2023-02-28T00:49:04;24.65;;;12.30;;
58123;SDS011;46725;48.068;20.832;2023-02-28T00:51:30;29.10;;;12.38;;
58123;SDS011;46725;48.068;20.832;2023-02-28T00:53:56;26.38;;;12.10;;
58123;SDS011;46725;48.068;20.832;2023-02-28T00:56:22;26.80;;;11.90;;
58123;SDS011;46725;48.068;20.832;2023-02-28T00:58:48;19.20;;;8.52;;
58123;SDS011;46725;48.068;20.832;2023-02-28T01:01:14;21.17;;;10.35;;
58123;SDS011;46725;48.068;20.832;2023-02-28T01:03:40;25.65;;;10.90;;
58123;SDS011;46725;48.068;20.832;2023-02-28T01:06:07;23.67;;;10.82;;
58123;SDS011;46725;48.068;20.832;2023-02-28T01:08:33;24.38;;;10.90;;
58123;SDS011;46725;48.068;20.832;2023-02-28T01:11:06;21.98;;;10.27;;
58123;SDS011;46725;48.068;20.832;2023-02-28T01:13:32;22.05;;;9.88;;
58123;SDS011;46725;48.068;20.832;2023-02-28T01:15:58;19.17;;;8.70;;
58123;SDS011;46725;48.068;20.832;2023-02-28T01:18:24;18.58;;;8.77;;
58123;SDS011;46725;48.068;20.832;2023-02-28T01:20:50;14.88;;;7.68;;
58123;SDS011;46725;48.068;20.832;2023-02-28T01:23:18;20.30;;;8.13;;
58123;SDS011;46725;48.068;20.832;2023-02-28T01:25:45;20.27;;;7.60;;
58123;SDS011;46725;48.068;20.832;2023-02-28T01:28:11;20.13;;;7.60;;
58123;SDS011;46725;48.068;20.832;2023-02-28T01:30:37;20.25;;;8.13;;
58123;SDS011;46725;48.068;20.832;2023-02-28T01:33:03;17.02;;;7.57;;
58123;SDS011;46725;48.068;20.832;2023-02-28T01:35:31;19.08;;;10.00;;
58123;SDS011;46725;48.068;20.832;2023-02-28T01:37:57;19.17;;;8.70;;
58123;SDS011;46725;48.068;20.832;2023-02-28T01:40:24;20.52;;;8.80;;
58123;SDS011;46725;48.068;20.832;2023-02-28T01:42:50;16.58;;;7.88;;
58123;SDS011;46725;48.068;20.832;2023-02-28T01:47:45;18.42;;;8.77;;
58123;SDS011;46725;48.068;20.832;2023-02-28T01:50:14;16.63;;;9.02;;
58123;SDS011;46725;48.068;20.832;2023-02-28T01:52:42;21.20;;;9.05;;
58123;SDS011;46725;48.068;20.832;2023-02-28T01:55:08;22.95;;;9.73;;
58123;SDS011;46725;48.068;20.832;2023-02-28T01:57:37;19.42;;;9.35;;
58123;SDS011;46725;48.068;20.832;2023-02-28T02:00:08;23.38;;;10.60;;
58123;SDS011;46725;48.068;20.832;2023-02-28T02:02:34;20.02;;;9.55;;
58123;SDS011;46725;48.068;20.832;2023-02-28T02:05:15;22.55;;;9.23;;
58123;SDS011;46725;48.068;20.832;2023-02-28T02:07:42;19.33;;;9.73;;
58123;SDS011;46725;48.068;20.832;2023-02-28T02:15:30;20.38;;;9.57;;
58123;SDS011;46725;48.068;20.832;2023-02-28T02:17:59;21.30;;;9.13;;
58123;SDS011;46725;48.068;20.832;2023-02-28T02:25:29;20.55;;;8.60;;
58123;SDS011;46725;48.068;20.832;2023-02-28T02:33:34;19.00;;;9.23;;
58123;SDS011;46725;48.068;20.832;2023-02-28T02:38:47;18.70;;;7.22;;
58123;SDS011;46725;48.068;20.832;2023-02-28T02:41:17;19.58;;;8.93;;
58123;SDS011;46725;48.068;20.832;2023-02-28T02:46:26;17.45;;;8.43;;
58123;SDS011;46725;48.068;20.832;2023-02-28T02:48:54;25.67;;;9.70;;
58123;SDS011;46725;48.068;20.832;2023-02-28T02:51:22;16.60;;;7.15;;
58123;SDS011;46725;48.068;20.832;2023-02-28T02:53:55;19.90;;;9.27;;
58123;SDS011;46725;48.068;20.832;2023-02-28T02:56:24;17.65;;;8.18;;
58123;SDS011;46725;48.068;20.832;2023-02-28T02:58:52;19.52;;;8.77;;
58123;SDS011;46725;48.068;20.832;2023-02-28T03:01:20;13.23;;;6.88;;
58123;SDS011;46725;48.068;20.832;2023-02-28T03:03:53;16.38;;;7.38;;
58123;SDS011;46725;48.068;20.832;2023-02-28T03:06:20;19.83;;;7.80;;
58123;SDS011;46725;48.068;20.832;2023-02-28T03:08:46;21.95;;;8.50;;
58123;SDS011;46725;48.068;20.832;2023-02-28T03:11:13;16.02;;;7.85;;
58123;SDS011;46725;48.068;20.832;2023-02-28T03:18:58;14.27;;;6.78;;
58123;SDS011;46725;48.068;20.832;2023-02-28T03:21:43;21.13;;;7.63;;
58123;SDS011;46725;48.068;20.832;2023-02-28T03:24:23;16.73;;;7.93;;
58123;SDS011;46725;48.068;20.832;2023-02-28T03:26:52;20.23;;;8.75;;
58123;SDS011;46725;48.068;20.832;2023-02-28T03:29:42;17.77;;;7.00;;
58123;SDS011;46725;48.068;20.832;2023-02-28T03:32:24;16.35;;;7.65;;
58123;SDS011;46725;48.068;20.832;2023-02-28T03:34:56;16.00;;;7.70;;
58123;SDS011;46725;48.068;20.832;2023-02-28T03:37:25;20.35;;;8.45;;
58123;SDS011;46725;48.068;20.832;2023-02-28T03:40:03;16.92;;;8.68;;
58123;SDS011;46725;48.068;20.832;2023-02-28T03:42:31;21.75;;;8.90;;
58123;SDS011;46725;48.068;20.832;2023-02-28T03:45:08;16.85;;;8.70;;
58123;SDS011;46725;48.068;20.832;2023-02-28T03:47:41;16.58;;;8.15;;
58123;SDS011;46725;48.068;20.832;2023-02-28T03:53:02;18.35;;;8.25;;
58123;SDS011;46725;48.068;20.832;2023-02-28T03:55:32;15.13;;;7.25;;
58123;SDS011;46725;48.068;20.832;2023-02-28T04:00:35;13.23;;;6.90;;
58123;SDS011;46725;48.068;20.832;2023-02-28T04:03:04;16.30;;;6.80;;
58123;SDS011;46725;48.068;20.832;2023-02-28T04:05:30;17.65;;;7.28;;
58123;SDS011;46725;48.068;20.832;2023-02-28T04:08:04;17.80;;;8.02;;
58123;SDS011;46725;48.068;20.832;2023-02-28T04:10:30;16.60;;;7.07;;
58123;SDS011;46725;48.068;20.832;2023-02-28T04:12:56;18.98;;;7.32;;
58123;SDS011;46725;48.068;20.832;2023-02-28T04:15:22;15.30;;;6.35;;
58123;SDS011;46725;48.068;20.832;2023-02-28T04:17:49;14.18;;;6.60;;
58123;SDS011;46725;48.068;20.832;2023-02-28T04:20:15;11.00;;;5.65;;
58123;SDS011;46725;48.068;20.832;2023-02-28T04:22:41;12.15;;;5.65;;
58123;SDS011;46725;48.068;20.832;2023-02-28T04:25:08;15.48;;;6.97;;
58123;SDS011;46725;48.068;20.832;2023-02-28T04:27:34;12.35;;;5.80;;
58123;SDS011;46725;48.068;20.832;2023-02-28T04:30:00;10.80;;;6.03;;
58123;SDS011;46725;48.068;20.832;2023-02-28T04:32:26;15.32;;;6.53;;
58123;SDS011;46725;48.068;20.832;2023-02-28T04:34:52;13.70;;;6.75;;
58123;SDS011;46725;48.068;20.832;2023-02-28T04:37:18;19.20;;;7.80;;
58123;SDS011;46725;48.068;20.832;2023-02-28T04:39:44;13.43;;;5.72;;
58123;SDS011;46725;48.068;20.832;2023-02-28T04:42:10;15.20;;;6.22;;
58123;SDS011;46725;48.068;20.832;2023-02-28T04:44:37;18.10;;;7.28;;
58123;SDS011;46725;48.068;20.832;2023-02-28T04:47:03;15.70;;;6.68;;
58123;SDS011;46725;48.068;20.832;2023-02-28T04:49:29;11.73;;;5.93;;
58123;SDS011;46725;48.068;20.832;2023-02-28T04:51:55;14.98;;;5.80;;
58123;SDS011;46725;48.068;20.832;2023-02-28T04:54:21;13.98;;;6.45;;
58123;SDS011;46725;48.068;20.832;2023-02-28T04:56:48;14.60;;;6.45;;
58123;SDS011;46725;48.068;20.832;2023-02-28T04:59:14;15.23;;;6.97;;
58123;SDS011;46725;48.068;20.832;2023-02-28T05:01:40;14.43;;;7.50;;
58123;SDS011;46725;48.068;20.832;2023-02-28T05:04:11;14.27;;;7.03;;
58123;SDS011;46725;48.068;20.832;2023-02-28T05:06:37;25.40;;;8.80;;
58123;SDS011;46725;48.068;20.832;2023-02-28T05:09:03;14.15;;;7.25;;
58123;SDS011;46725;48.068;20.832;2023-02-28T05:11:30;18.52;;;8.05;;
58123;SDS011;46725;48.068;20.832;2023-02-28T05:14:00;21.58;;;8.98;;
58123;SDS011;46725;48.068;20.832;2023-02-28T05:16:27;24.08;;;10.32;;
58123;SDS011;46725;48.068;20.832;2023-02-28T05:18:53;17.88;;;9.35;;
58123;SDS011;46725;48.068;20.832;2023-02-28T05:21:29;19.25;;;9.60;;
58123;SDS011;46725;48.068;20.832;2023-02-28T05:23:56;24.65;;;10.60;;
58123;SDS011;46725;48.068;20.832;2023-02-28T05:26:23;24.67;;;12.48;;
58123;SDS011;46725;48.068;20.832;2023-02-28T05:28:49;22.58;;;9.30;;
58123;SDS011;46725;48.068;20.832;2023-02-28T05:31:15;24.90;;;10.38;;
58123;SDS011;46725;48.068;20.832;2023-02-28T05:33:41;26.17;;;11.90;;
58123;SDS011;46725;48.068;20.832;2023-02-28T05:36:08;24.45;;;11.88;;
58123;SDS011;46725;48.068;20.832;2023-02-28T05:38:34;23.85;;;11.63;;
58123;SDS011;46725;48.068;20.832;2023-02-28T05:41:00;19.88;;;11.43;;
58123;SDS011;46725;48.068;20.832;2023-02-28T05:43:26;21.45;;;10.63;;
58123;SDS011;46725;48.068;20.832;2023-02-28T05:45:52;25.10;;;10.95;;
58123;SDS011;46725;48.068;20.832;2023-02-28T05:48:18;15.15;;;8.10;;
58123;SDS011;46725;48.068;20.832;2023-02-28T05:50:44;18.92;;;9.50;;
58123;SDS011;46725;48.068;20.832;2023-02-28T05:53:11;18.95;;;9.63;;
58123;SDS011;46725;48.068;20.832;2023-02-28T05:55:37;21.08;;;9.98;;
58123;SDS011;46725;48.068;20.832;2023-02-28T05:58:03;21.63;;;10.38;;
58123;SDS011;46725;48.068;20.832;2023-02-28T06:00:29;22.02;;;9.25;;
58123;SDS011;46725;48.068;20.832;2023-02-28T06:02:55;21.00;;;10.05;;
58123;SDS011;46725;48.068;20.832;2023-02-28T06:05:24;19.85;;;9.82;;
58123;SDS011;46725;48.068;20.832;2023-02-28T06:07:50;18.25;;;9.73;;
58123;SDS011;46725;48.068;20.832;2023-02-28T06:10:17;16.63;;;9.30;;
58123;SDS011;46725;48.068;20.832;2023-02-28T06:12:43;23.88;;;11.20;;
58123;SDS011;46725;48.068;20.832;2023-02-28T06:15:13;20.50;;;9.55;;
58123;SDS011;46725;48.068;20.832;2023-02-28T06:17:40;19.80;;;9.95;;
58123;SDS011;46725;48.068;20.832;2023-02-28T06:20:06;30.67;;;13.20;;
58123;SDS011;46725;48.068;20.832;2023-02-28T06:22:33;28.35;;;13.18;;
58123;SDS011;46725;48.068;20.832;2023-02-28T06:24:59;21.92;;;12.55;;
58123;SDS011;46725;48.068;20.832;2023-02-28T06:27:25;22.38;;;13.13;;
58123;SDS011;46725;48.068;20.832;2023-02-28T06:29:53;23.92;;;12.70;;
58123;SDS011;46725;48.068;20.832;2023-02-28T06:32:20;26.33;;;13.80;;
58123;SDS011;46725;48.068;20.832;2023-02-28T06:34:47;26.20;;;13.73;;
58123;SDS011;46725;48.068;20.832;2023-02-28T06:37:13;28.95;;;13.30;;
58123;SDS011;46725;48.068;20.832;2023-02-28T06:39:39;24.35;;;12.48;;
58123;SDS011;46725;48.068;20.832;2023-02-28T06:42:05;24.27;;;11.02;;
58123;SDS011;46725;48.068;20.832;2023-02-28T06:44:31;21.92;;;11.38;;
58123;SDS011;46725;48.068;20.832;2023-02-28T06:47:00;21.83;;;11.32;;
58123;SDS011;46725;48.068;20.832;2023-02-28T06:49:28;16.83;;;8.02;;
58123;SDS011;46725;48.068;20.832;2023-02-28T06:51:54;16.75;;;7.47;;
58123;SDS011;46725;48.068;20.832;2023-02-28T06:54:20;16.77;;;7.30;;
58123;SDS011;46725;48.068;20.832;2023-02-28T06:56:46;17.63;;;8.32;;
58123;SDS011;46725;48.068;20.832;2023-02-28T06:59:12;21.45;;;8.65;;
58123;SDS011;46725;48.068;20.832;2023-02-28T07:01:39;18.50;;;8.70;;
58123;SDS011;46725;48.068;20.832;2023-02-28T07:04:05;18.42;;;7.82;;
58123;SDS011;46725;48.068;20.832;2023-02-28T07:06:31;17.95;;;9.40;;
58123;SDS011;46725;48.068;20.832;2023-02-28T07:08:58;21.88;;;9.43;;
58123;SDS011;46725;48.068;20.832;2023-02-28T07:11:25;16.45;;;8.32;;
58123;SDS011;46725;48.068;20.832;2023-02-28T07:13:52;16.67;;;7.20;;
58123;SDS011;46725;48.068;20.832;2023-02-28T07:16:18;16.35;;;7.13;;
58123;SDS011;46725;48.068;20.832;2023-02-28T07:18:45;18.67;;;7.35;;
58123;SDS011;46725;48.068;20.832;2023-02-28T07:21:11;15.20;;;7.57;;
58123;SDS011;46725;48.068;20.832;2023-02-28T07:23:37;18.85;;;7.50;;
58123;SDS011;46725;48.068;20.832;2023-02-28T07:26:04;13.68;;;7.15;;
58123;SDS011;46725;48.068;20.832;2023-02-28T07:28:31;16.77;;;6.78;;
58123;SDS011;46725;48.068;20.832;2023-02-28T07:31:02;16.42;;;7.70;;
58123;SDS011;46725;48.068;20.832;2023-02-28T07:33:28;16.00;;;7.25;;
58123;SDS011;46725;48.068;20.832;2023-02-28T07:35:59;17.52;;;7.80;;
58123;SDS011;46725;48.068;20.832;2023-02-28T07:38:26;18.05;;;6.00;;
58123;SDS011;46725;48.068;20.832;2023-02-28T07:40:52;18.83;;;7.18;;
58123;SDS011;46725;48.068;20.832;2023-02-28T07:43:18;12.65;;;6.10;;
58123;SDS011;46725;48.068;20.832;2023-02-28T07:45:44;14.57;;;6.75;;
58123;SDS011;46725;48.068;20.832;2023-02-28T07:48:10;14.15;;;7.20;;
58123;SDS011;46725;48.068;20.832;2023-02-28T07:50:36;17.98;;;7.15;;
58123;SDS011;46725;48.068;20.832;2023-02-28T07:53:02;15.27;;;8.02;;
58123;SDS011;46725;48.068;20.832;2023-02-28T07:55:29;15.80;;;7.93;;
58123;SDS011;46725;48.068;20.832;2023-02-28T07:57:56;12.95;;;6.75;;
58123;SDS011;46725;48.068;20.832;2023-02-28T08:00:22;15.10;;;6.30;;
58123;SDS011;46725;48.068;20.832;2023-02-28T08:02:49;14.88;;;6.60;;
58123;SDS011;46725;48.068;20.832;2023-02-28T08:05:15;15.10;;;7.22;;
58123;SDS011;46725;48.068;20.832;2023-02-28T08:07:42;13.10;;;6.68;;
58123;SDS011;46725;48.068;20.832;2023-02-28T08:10:08;14.10;;;6.35;;
58123;SDS011;46725;48.068;20.832;2023-02-28T08:12:35;15.45;;;6.97;;
58123;SDS011;46725;48.068;20.832;2023-02-28T08:15:01;18.70;;;8.60;;
58123;SDS011;46725;48.068;20.832;2023-02-28T08:17:27;17.40;;;8.18;;
58123;SDS011;46725;48.068;20.832;2023-02-28T08:19:53;13.15;;;7.30;;
58123;SDS011;46725;48.068;20.832;2023-02-28T08:22:19;17.70;;;7.22;;
58123;SDS011;46725;48.068;20.832;2023-02-28T08:24:45;17.10;;;8.63;;
58123;SDS011;46725;48.068;20.832;2023-02-28T08:27:11;17.30;;;7.85;;
58123;SDS011;46725;48.068;20.832;2023-02-28T08:29:38;15.77;;;8.05;;
58123;SDS011;46725;48.068;20.832;2023-02-28T08:32:04;15.63;;;7.05;;
58123;SDS011;46725;48.068;20.832;2023-02-28T08:34:31;16.35;;;7.40;;
58123;SDS011;46725;48.068;20.832;2023-02-28T08:36:57;13.63;;;7.53;;
58123;SDS011;46725;48.068;20.832;2023-02-28T08:39:23;13.43;;;7.50;;
58123;SDS011;46725;48.068;20.832;2023-02-28T08:41:49;13.60;;;7.53;;
58123;SDS011;46725;48.068;20.832;2023-02-28T08:44:15;17.27;;;8.98;;
58123;SDS011;46725;48.068;20.832;2023-02-28T08:46:41;17.65;;;7.53;;
58123;SDS011;46725;48.068;20.832;2023-02-28T08:49:09;15.80;;;7.40;;
58123;SDS011;46725;48.068;20.832;2023-02-28T08:51:36;14.75;;;7.05;;
58123;SDS011;46725;48.068;20.832;2023-02-28T08:54:04;15.57;;;6.93;;
58123;SDS011;46725;48.068;20.832;2023-02-28T08:56:30;16.95;;;7.07;;
58123;SDS011;46725;48.068;20.832;2023-02-28T08:58:56;14.13;;;6.00;;
58123;SDS011;46725;48.068;20.832;2023-02-28T09:01:23;15.30;;;6.85;;
58123;SDS011;46725;48.068;20.832;2023-02-28T09:03:50;13.73;;;7.55;;
58123;SDS011;46725;48.068;20.832;2023-02-28T09:06:17;16.38;;;7.00;;
58123;SDS011;46725;48.068;20.832;2023-02-28T09:08:43;15.15;;;6.38;;
58123;SDS011;46725;48.068;20.832;2023-02-28T09:11:09;14.52;;;7.05;;
58123;SDS011;46725;48.068;20.832;2023-02-28T09:13:36;12.30;;;7.00;;
58123;SDS011;46725;48.068;20.832;2023-02-28T09:16:03;17.80;;;6.97;;
58123;SDS011;46725;48.068;20.832;2023-02-28T09:18:30;13.45;;;6.93;;
58123;SDS011;46725;48.068;20.832;2023-02-28T09:20:56;14.27;;;6.55;;
58123;SDS011;46725;48.068;20.832;2023-02-28T09:23:23;17.40;;;8.00;;
58123;SDS011;46725;48.068;20.832;2023-02-28T09:25:53;14.43;;;6.35;;
58123;SDS011;46725;48.068;20.832;2023-02-28T09:28:20;18.13;;;7.35;;
58123;SDS011;46725;48.068;20.832;2023-02-28T09:30:47;13.43;;;6.18;;
58123;SDS011;46725;48.068;20.832;2023-02-28T09:33:13;17.88;;;7.45;;
58123;SDS011;46725;48.068;20.832;2023-02-28T09:35:40;12.88;;;5.85;;
58123;SDS011;46725;48.068;20.832;2023-02-28T09:38:06;16.48;;;7.63;;
58123;SDS011;46725;48.068;20.832;2023-02-28T09:40:34;16.38;;;7.53;;
58123;SDS011;46725;48.068;20.832;2023-02-28T09:43:01;14.95;;;5.70;;
58123;SDS011;46725;48.068;20.832;2023-02-28T09:47:54;13.75;;;6.68;;
58123;SDS011;46725;48.068;20.832;2023-02-28T09:52:48;17.10;;;7.40;;
58123;SDS011;46725;48.068;20.832;2023-02-28T09:57:41;16.27;;;8.13;;
58123;SDS011;46725;48.068;20.832;2023-02-28T10:03:03;20.63;;;8.43;;
58123;SDS011;46725;48.068;20.832;2023-02-28T10:05:41;13.40;;;6.63;;
58123;SDS011;46725;48.068;20.832;2023-02-28T10:08:12;18.13;;;6.93;;
58123;SDS011;46725;48.068;20.832;2023-02-28T10:10:47;18.83;;;8.38;;
58123;SDS011;46725;48.068;20.832;2023-02-28T10:13:16;16.70;;;7.85;;
58123;SDS011;46725;48.068;20.832;2023-02-28T10:15:43;17.63;;;8.02;;
58123;SDS011;46725;48.068;20.832;2023-02-28T10:18:11;16.33;;;8.13;;
58123;SDS011;46725;48.068;20.832;2023-02-28T10:20:39;17.00;;;8.55;;
58123;SDS011;46725;48.068;20.832;2023-02-28T10:26:32;16.90;;;6.72;;
58123;SDS011;46725;48.068;20.832;2023-02-28T10:28:41;13.43;;;7.43;;
58123;SDS011;46725;48.068;20.832;2023-02-28T10:31:10;18.15;;;8.27;;
58123;SDS011;46725;48.068;20.832;2023-02-28T10:33:37;15.23;;;7.82;;
58123;SDS011;46725;48.068;20.832;2023-02-28T10:36:03;15.38;;;7.88;;
58123;SDS011;46725;48.068;20.832;2023-02-28T10:38:36;14.18;;;7.15;;
58123;SDS011;46725;48.068;20.832;2023-02-28T10:43:31;18.80;;;8.00;;
58123;SDS011;46725;48.068;20.832;2023-02-28T10:45:58;16.20;;;8.48;;
58123;SDS011;46725;48.068;20.832;2023-02-28T10:48:38;12.48;;;6.18;;
58123;SDS011;46725;48.068;20.832;2023-02-28T10:51:06;9.57;;;5.15;;
58123;SDS011;46725;48.068;20.832;2023-02-28T10:53:34;8.82;;;4.97;;
58123;SDS011;46725;48.068;20.832;2023-02-28T11:01:21;10.27;;;5.25;;
58123;SDS011;46725;48.068;20.832;2023-02-28T11:03:48;16.02;;;6.90;;
58123;SDS011;46725;48.068;20.832;2023-02-28T11:06:21;11.43;;;6.47;;
58123;SDS011;46725;48.068;20.832;2023-02-28T11:08:49;8.95;;;4.88;;
58123;SDS011;46725;48.068;20.832;2023-02-28T11:11:16;12.73;;;6.60;;
58123;SDS011;46725;48.068;20.832;2023-02-28T11:13:44;11.20;;;5.45;;
58123;SDS011;46725;48.068;20.832;2023-02-28T11:16:12;11.30;;;5.47;;
58123;SDS011;46725;48.068;20.832;2023-02-28T11:21:21;10.57;;;5.50;;
58123;SDS011;46725;48.068;20.832;2023-02-28T11:23:49;13.38;;;6.88;;
58123;SDS011;46725;48.068;20.832;2023-02-28T11:26:15;10.43;;;5.95;;
58123;SDS011;46725;48.068;20.832;2023-02-28T11:28:42;11.65;;;5.50;;
58123;SDS011;46725;48.068;20.832;2023-02-28T11:33:42;19.05;;;9.60;;
58123;SDS011;46725;48.068;20.832;2023-02-28T11:36:29;13.05;;;7.15;;
58123;SDS011;46725;48.068;20.832;2023-02-28T11:38:56;10.25;;;5.90;;
58123;SDS011;46725;48.068;20.832;2023-02-28T11:44:02;12.07;;;5.85;;
58123;SDS011;46725;48.068;20.832;2023-02-28T11:51:28;11.55;;;5.90;;
58123;SDS011;46725;48.068;20.832;2023-02-28T11:54:04;10.57;;;5.63;;
58123;SDS011;46725;48.068;20.832;2023-02-28T11:56:36;10.63;;;5.57;;
58123;SDS011;46725;48.068;20.832;2023-02-28T12:02:03;11.52;;;5.82;;
58123;SDS011;46725;48.068;20.832;2023-02-28T12:15:13;11.45;;;5.97;;
58123;SDS011;46725;48.068;20.832;2023-02-28T12:23:00;12.88;;;5.50;;
58123;SDS011;46725;48.068;20.832;2023-02-28T12:28:02;7.65;;;4.82;;
58123;SDS011;46725;48.068;20.832;2023-02-28T12:30:33;13.05;;;5.60;;
58123;SDS011;46725;48.068;20.832;2023-02-28T12:35:41;10.00;;;5.72;;
58123;SDS011;46725;48.068;20.832;2023-02-28T12:38:14;9.77;;;5.60;;
58123;SDS011;46725;48.068;20.832;2023-02-28T12:43:12;10.15;;;6.07;;
58123;SDS011;46725;48.068;20.832;2023-02-28T12:48:08;11.45;;;6.15;;
58123;SDS011;46725;48.068;20.832;2023-02-28T12:50:36;9.73;;;5.93;;
58123;SDS011;46725;48.068;20.832;2023-02-28T12:58:07;10.38;;;5.68;;
58123;SDS011;46725;48.068;20.832;2023-02-28T13:00:37;10.70;;;5.15;;
58123;SDS011;46725;48.068;20.832;2023-02-28T13:08:12;9.27;;;5.15;;
58123;SDS011;46725;48.068;20.832;2023-02-28T13:10:42;11.95;;;6.13;;
58123;SDS011;46725;48.068;20.832;2023-02-28T13:13:17;10.02;;;5.32;;
58123;SDS011;46725;48.068;20.832;2023-02-28T13:16:00;11.50;;;5.85;;
58123;SDS011;46725;48.068;20.832;2023-02-28T13:18:34;10.00;;;5.05;;
58123;SDS011;46725;48.068;20.832;2023-02-28T13:21:02;12.43;;;5.80;;
58123;SDS011;46725;48.068;20.832;2023-02-28T13:26:16;10.23;;;5.95;;
58123;SDS011;46725;48.068;20.832;2023-02-28T13:31:14;8.27;;;4.88;;
58123;SDS011;46725;48.068;20.832;2023-02-28T13:44:02;11.82;;;6.57;;
58123;SDS011;46725;48.068;20.832;2023-02-28T13:46:29;12.05;;;6.32;;
58123;SDS011;46725;48.068;20.832;2023-02-28T13:48:55;9.70;;;5.40;;
58123;SDS011;46725;48.068;20.832;2023-02-28T13:54:29;19.63;;;14.95;;
58123;SDS011;46725;48.068;20.832;2023-02-28T13:59:45;10.13;;;6.05;;
58123;SDS011;46725;48.068;20.832;2023-02-28T14:07:04;9.90;;;6.03;;
58123;SDS011;46725;48.068;20.832;2023-02-28T14:09:35;15.13;;;7.63;;
58123;SDS011;46725;48.068;20.832;2023-02-28T14:17:15;13.52;;;6.45;;
58123;SDS011;46725;48.068;20.832;2023-02-28T14:19:43;12.93;;;7.18;;
58123;SDS011;46725;48.068;20.832;2023-02-28T14:34:51;11.68;;;6.15;;
58123;SDS011;46725;48.068;20.832;2023-02-28T14:37:20;12.98;;;6.78;;
58123;SDS011;46725;48.068;20.832;2023-02-28T14:39:49;11.88;;;6.75;;
58123;SDS011;46725;48.068;20.832;2023-02-28T14:42:32;18.40;;;8.13;;
58123;SDS011;46725;48.068;20.832;2023-02-28T14:44:59;12.35;;;6.40;;
58123;SDS011;46725;48.068;20.832;2023-02-28T14:47:30;17.65;;;8.82;;
58123;SDS011;46725;48.068;20.832;2023-02-28T14:49:58;13.30;;;7.45;;
58123;SDS011;46725;48.068;20.832;2023-02-28T14:52:24;11.70;;;6.90;;
58123;SDS011;46725;48.068;20.832;2023-02-28T14:54:53;19.88;;;9.27;;
58123;SDS011;46725;48.068;20.832;2023-02-28T14:57:21;14.07;;;7.00;;
58123;SDS011;46725;48.068;20.832;2023-02-28T14:59:56;9.82;;;5.70;;
58123;SDS011;46725;48.068;20.832;2023-02-28T15:02:23;30.60;;;13.38;;
58123;SDS011;46725;48.068;20.832;2023-02-28T15:04:56;16.33;;;8.43;;
58123;SDS011;46725;48.068;20.832;2023-02-28T15:07:23;22.52;;;10.70;;
58123;SDS011;46725;48.068;20.832;2023-02-28T15:10:15;15.40;;;8.38;;
58123;SDS011;46725;48.068;20.832;2023-02-28T15:12:45;11.55;;;6.78;;
58123;SDS011;46725;48.068;20.832;2023-02-28T15:15:15;13.32;;;6.95;;
58123;SDS011;46725;48.068;20.832;2023-02-28T15:17:43;10.52;;;6.00;;
58123;SDS011;46725;48.068;20.832;2023-02-28T15:20:11;14.35;;;7.45;;
58123;SDS011;46725;48.068;20.832;2023-02-28T15:22:38;18.27;;;6.78;;
58123;SDS011;46725;48.068;20.832;2023-02-28T15:25:05;12.40;;;7.10;;
58123;SDS011;46725;48.068;20.832;2023-02-28T15:27:33;16.17;;;7.13;;
58123;SDS011;46725;48.068;20.832;2023-02-28T15:30:04;11.98;;;6.00;;
58123;SDS011;46725;48.068;20.832;2023-02-28T15:32:35;11.77;;;6.38;;
58123;SDS011;46725;48.068;20.832;2023-02-28T15:37:47;12.68;;;6.75;;
58123;SDS011;46725;48.068;20.832;2023-02-28T15:42:40;12.05;;;6.20;;
58123;SDS011;46725;48.068;20.832;2023-02-28T15:45:55;13.30;;;7.75;;
58123;SDS011;46725;48.068;20.832;2023-02-28T15:47:55;17.10;;;8.55;;
58123;SDS011;46725;48.068;20.832;2023-02-28T15:50:21;15.10;;;8.65;;
58123;SDS011;46725;48.068;20.832;2023-02-28T15:52:47;19.23;;;10.35;;
58123;SDS011;46725;48.068;20.832;2023-02-28T15:55:20;23.40;;;12.70;;
58123;SDS011;46725;48.068;20.832;2023-02-28T15:57:48;15.05;;;8.23;;
58123;SDS011;46725;48.068;20.832;2023-02-28T16:00:18;15.15;;;7.88;;
58123;SDS011;46725;48.068;20.832;2023-02-28T16:02:44;13.93;;;8.15;;
58123;SDS011;46725;48.068;20.832;2023-02-28T16:07:40;16.73;;;9.05;;
58123;SDS011;46725;48.068;20.832;2023-02-28T16:10:07;19.15;;;10.85;;
58123;SDS011;46725;48.068;20.832;2023-02-28T16:12:34;20.85;;;10.38;;
58123;SDS011;46725;48.068;20.832;2023-02-28T16:15:20;29.30;;;15.10;;
58123;SDS011;46725;48.068;20.832;2023-02-28T16:17:47;41.33;;;21.45;;
58123;SDS011;46725;48.068;20.832;2023-02-28T16:20:14;46.90;;;20.52;;
58123;SDS011;46725;48.068;20.832;2023-02-28T16:22:41;41.47;;;19.40;;
58123;SDS011;46725;48.068;20.832;2023-02-28T16:25:08;41.63;;;19.15;;
58123;SDS011;46725;48.068;20.832;2023-02-28T16:27:35;42.63;;;19.02;;
58123;SDS011;46725;48.068;20.832;2023-02-28T16:30:02;42.65;;;19.35;;
58123;SDS011;46725;48.068;20.832;2023-02-28T16:32:29;37.55;;;18.70;;
58123;SDS011;46725;48.068;20.832;2023-02-28T16:34:56;36.42;;;17.85;;
58123;SDS011;46725;48.068;20.832;2023-02-28T16:37:22;34.05;;;17.15;;
58123;SDS011;46725;48.068;20.832;2023-02-28T16:39:48;42.30;;;19.15;;
58123;SDS011;46725;48.068;20.832;2023-02-28T16:42:18;45.72;;;22.38;;
58123;SDS011;46725;48.068;20.832;2023-02-28T16:44:46;51.30;;;24.30;;
58123;SDS011;46725;48.068;20.832;2023-02-28T16:47:13;38.17;;;19.48;;
58123;SDS011;46725;48.068;20.832;2023-02-28T16:49:39;36.15;;;20.35;;
58123;SDS011;46725;48.068;20.832;2023-02-28T16:52:07;40.03;;;19.48;;
58123;SDS011;46725;48.068;20.832;2023-02-28T16:54:33;34.90;;;18.30;;
58123;SDS011;46725;48.068;20.832;2023-02-28T16:57:00;34.28;;;17.95;;
58123;SDS011;46725;48.068;20.832;2023-02-28T16:59:27;35.72;;;18.30;;
58123;SDS011;46725;48.068;20.832;2023-02-28T17:01:54;38.08;;;21.00;;